Observations for Trim Market St
| Time | AQI | Temp °C | Hum % | Pres Pa | CO μg/m³ | H₂S μg/m³ | NO μg/m³ | NO₂ μg/m³ | O₃ μg/m³ | SO₂ μg/m³ | PM1 μg/m³ | PM2.5 μg/m³ | PM10 μg/m³ |
|---|---|---|---|---|---|---|---|---|---|---|---|---|---|
| Wednesday 12 August 2026 | |||||||||||||
| 02:40 | 2 | 19.5 | 63 | 57,570 | 0.02 | 0 | 1.26 | 13.18 | 62.27 | 0 | 1.43 | 3.37 | 5.53 |
| 02:39 | 2 | 19.5 | 63 | 57,575 | 0.03 | 0 | 1.26 | 20.07 | 57.68 | 0 | 0.71 | 3.37 | 4.87 |
| 02:38 | 2 | 19.6 | 63 | 57,582 | 0.01 | 0 | 1.25 | 15.38 | 59.31 | 0 | 1.43 | 2.87 | 4.2 |
| 02:37 | 2 | 19.5 | 63 | 57,583 | 0.01 | 0 | 1.24 | 13.45 | 65.63 | 0 | 1.43 | 3.37 | 4.86 |
| 02:36 | 2 | 19.5 | 63 | 57,583 | 0.02 | 0 | 1.23 | 15.75 | 62.36 | 0 | 1.43 | 3.87 | 5.53 |
| 02:35 | 2 | 19.6 | 63 | 57,586 | 0.02 | 0 | 1.23 | 18.85 | 60.47 | 0 | 1.43 | 2.88 | 4.19 |
| 02:34 | 2 | 19.6 | 63 | 57,591 | 0 | 0 | 1.23 | 16.67 | 63.15 | 0 | 1.43 | 3.37 | 4.86 |
| 02:33 | 2 | 19.6 | 63 | 57,592 | 0.02 | 0 | 1.23 | 20.63 | 58.73 | 0 | 1.43 | 2.88 | 4.19 |
| 02:30 | 2 | 19.6 | 63 | 57,604 | 0.01 | 0 | 1.23 | 16.68 | 63.05 | 0 | 1.43 | 3.38 | 5.53 |
| 02:29 | 2 | 19.6 | 63 | 57,611 | 0.01 | 0 | 1.23 | 16.99 | 61.55 | 0 | 2.14 | 3.88 | 7.53 |
| 02:24 | 2 | 19.7 | 63 | 57,627 | 0.02 | 0 | 1.24 | 16.36 | 60.19 | 0 | 2.14 | 3.89 | 5.52 |
| 02:18 | 2 | 19.7 | 63 | 57,651 | 0.01 | 0 | 1.24 | 24.62 | 58.69 | 0 | 1.43 | 4.39 | 7.53 |
| 02:16 | 2 | 19.7 | 63 | 57,657 | 0.01 | 0 | 1.23 | 15.77 | 60.92 | 0 | 1.43 | 3.9 | 6.19 |
| 02:14 | 2 | 19.8 | 62 | 57,661 | 0.01 | 0 | 1.23 | 16.05 | 59.03 | 0 | 2.14 | 3.41 | 4.84 |
| 02:10 | 2 | 19.8 | 62 | 57,681 | 0.01 | 0 | 1.24 | 20.24 | 59.22 | 0 | 1.43 | 3.91 | 7.53 |
| 02:09 | 2 | 19.8 | 62 | 57,687 | 0 | 0 | 1.23 | 16.68 | 59.61 | 0 | 1.43 | 3.92 | 6.86 |
| 02:08 | 2 | 19.8 | 62 | 57,692 | 0.01 | 0 | 1.23 | 29.1 | 49.56 | 0 | 0.71 | 2.92 | 4.84 |
| 02:07 | 2 | 19.8 | 62 | 57,697 | 0 | 0 | 1.23 | 15.5 | 62.83 | 0 | 1.43 | 3.43 | 4.83 |
| 02:06 | 2 | 19.8 | 62 | 57,698 | 0.01 | 0 | 1.23 | 19.95 | 58.42 | 0 | 1.43 | 3.43 | 6.18 |
| 02:05 | 2 | 19.9 | 62 | 57,703 | 0 | 0 | 1.23 | 15.76 | 62.76 | 0 | 2.14 | 3.43 | 5.51 |